createdAt,value
2023-02-25T00:02:03.823Z,32.50
2023-02-25T00:07:06.053Z,39.10
2023-02-25T00:12:07.640Z,38.60
2023-02-25T00:17:09.263Z,43.30
2023-02-25T00:22:10.916Z,32.60
2023-02-25T00:27:12.473Z,26.20
2023-02-25T00:32:14.154Z,18.90
2023-02-25T00:37:17.004Z,26.40
2023-02-25T00:42:19.006Z,20.20
2023-02-25T00:47:20.655Z,18.00
2023-02-25T00:52:22.148Z,11.60
2023-02-25T00:57:24.546Z,23.30
2023-02-25T01:02:28.448Z,15.50
2023-02-25T01:12:31.581Z,19.50
2023-02-25T01:17:33.175Z,24.60
2023-02-25T01:22:34.702Z,14.80
2023-02-25T01:27:36.174Z,22.90
2023-02-25T01:32:38.338Z,21.80
2023-02-25T01:37:39.959Z,16.90
2023-02-25T01:42:41.446Z,19.80
2023-02-25T01:47:49.246Z,17.30
2023-02-25T01:52:52.095Z,15.60
2023-02-25T01:57:53.813Z,15.20
2023-02-25T02:02:56.826Z,14.80
2023-02-25T02:07:58.443Z,14.10
2023-02-25T02:13:00.676Z,10.50
2023-02-25T02:18:04.560Z,11.90
2023-02-25T02:23:39.282Z,14.30
2023-02-25T02:29:02.669Z,15.10
2023-02-25T02:34:16.855Z,13.90
2023-02-25T02:39:49.349Z,15.40
2023-02-25T02:44:58.946Z,12.30
2023-02-25T02:50:12.947Z,15.70
2023-02-25T02:55:25.369Z,10.30
2023-02-25T03:00:34.401Z,21.00
2023-02-25T03:05:38.171Z,17.90
2023-02-25T03:10:40.252Z,24.60
2023-02-25T03:15:42.981Z,16.80
2023-02-25T03:20:49.595Z,18.70
2023-02-25T03:26:02.833Z,16.50
2023-02-25T03:31:42.706Z,17.40
2023-02-25T03:36:50.917Z,22.30
2023-02-25T03:41:55.378Z,13.20
2023-02-25T03:46:58.690Z,11.20
2023-02-25T03:52:04.828Z,19.50
2023-02-25T03:57:06.656Z,14.80
2023-02-25T04:02:08.992Z,15.30
2023-02-25T04:07:10.557Z,12.00
2023-02-25T04:12:12.085Z,17.40
2023-02-25T04:17:13.596Z,12.60
2023-02-25T04:22:15.254Z,12.70
2023-02-25T04:27:16.876Z,13.10
2023-02-25T04:32:18.517Z,12.50
2023-02-25T04:37:20.254Z,11.70
2023-02-25T04:42:21.745Z,12.20
2023-02-25T04:47:23.316Z,10.00
2023-02-25T04:52:25.242Z,10.40
2023-02-25T04:57:27.018Z,11.60
2023-02-25T05:02:28.594Z,11.30
2023-02-25T05:07:30.085Z,9.50
2023-02-25T05:12:32.160Z,7.50
2023-02-25T05:17:34.434Z,8.30
2023-02-25T05:22:35.919Z,13.00
2023-02-25T05:27:37.709Z,10.70
2023-02-25T05:32:39.473Z,8.80
2023-02-25T05:37:41.057Z,11.10
2023-02-25T05:42:42.858Z,9.80
2023-02-25T05:47:44.898Z,8.50
2023-02-25T05:52:47.016Z,11.80
2023-02-25T05:57:48.788Z,11.10
2023-02-25T06:02:50.358Z,9.80
2023-02-25T06:07:51.903Z,9.40
2023-02-25T06:12:53.728Z,11.60
2023-02-25T06:17:55.725Z,13.50
2023-02-25T06:22:57.221Z,11.60
2023-02-25T06:28:00.568Z,8.60
2023-02-25T06:33:02.119Z,9.90
2023-02-25T06:38:03.647Z,15.30
2023-02-25T06:43:05.172Z,21.50
2023-02-25T06:48:07.009Z,15.70
2023-02-25T06:53:09.602Z,12.30
2023-02-25T06:58:11.142Z,10.00
2023-02-25T07:03:14.067Z,7.90
2023-02-25T07:08:15.602Z,15.80
2023-02-25T07:13:17.706Z,11.70
2023-02-25T07:18:20.690Z,10.00
2023-02-25T07:23:22.218Z,11.30
2023-02-25T07:28:24.634Z,9.80
2023-02-25T07:33:26.279Z,16.30
2023-02-25T07:38:27.790Z,11.30
2023-02-25T07:43:30.545Z,12.30
2023-02-25T07:48:32.782Z,18.70
2023-02-25T07:53:35.009Z,18.20
2023-02-25T07:58:38.387Z,12.70
2023-02-25T08:03:41.332Z,13.00
2023-02-25T08:08:42.834Z,10.30
2023-02-25T08:13:44.455Z,11.60
2023-02-25T08:18:47.056Z,16.60
2023-02-25T08:23:48.787Z,11.00
2023-02-25T08:28:51.656Z,14.50
2023-02-25T08:33:54.029Z,12.30
2023-02-25T08:38:57.612Z,20.90
2023-02-25T08:44:00.654Z,14.00
2023-02-25T08:49:02.329Z,10.80
2023-02-25T08:54:08.138Z,12.50
2023-02-25T08:59:14.724Z,14.10
2023-02-25T09:04:19.419Z,11.00
2023-02-25T09:09:22.344Z,11.00
2023-02-25T09:14:25.369Z,10.30
2023-02-25T09:19:26.959Z,11.30
2023-02-25T09:24:30.028Z,9.90
2023-02-25T09:29:33.018Z,10.40
2023-02-25T09:34:34.667Z,9.80
2023-02-25T09:39:36.139Z,10.00
2023-02-25T09:44:48.136Z,11.20
2023-02-25T09:50:00.108Z,9.20
2023-02-25T09:55:09.623Z,8.70
2023-02-25T10:00:24.301Z,8.40
2023-02-25T10:05:44.317Z,7.80
2023-02-25T10:10:54.885Z,7.70
2023-02-25T10:16:14.803Z,9.20
2023-02-25T10:21:35.791Z,9.40
2023-02-25T10:26:45.380Z,5.80
2023-02-25T10:31:47.466Z,6.90
2023-02-25T10:37:00.200Z,4.20
2023-02-25T10:42:01.921Z,7.30
2023-02-25T10:47:06.504Z,4.50
2023-02-25T10:52:15.200Z,6.00
2023-02-25T10:57:26.945Z,5.30
2023-02-25T11:02:31.627Z,8.60
2023-02-25T11:07:35.518Z,9.80
2023-02-25T11:12:42.754Z,8.80
2023-02-25T11:17:45.917Z,6.70
2023-02-25T11:22:55.549Z,6.90
2023-02-25T11:27:58.618Z,6.30
2023-02-25T11:33:04.762Z,3.30
2023-02-25T11:38:28.182Z,1.60
2023-02-25T11:43:39.657Z,3.50
2023-02-25T11:48:49.187Z,3.30
2023-02-25T11:54:41.668Z,3.20
2023-02-25T11:59:58.261Z,6.30
2023-02-25T12:05:05.965Z,4.30
2023-02-25T12:10:13.309Z,3.30
2023-02-25T12:15:45.844Z,5.30
2023-02-25T12:21:06.029Z,4.70
2023-02-25T12:26:39.044Z,4.50
2023-02-25T12:32:20.147Z,6.10
2023-02-25T12:37:40.903Z,4.40
2023-02-25T12:43:05.184Z,6.30
2023-02-25T12:48:26.816Z,3.60
2023-02-25T12:59:21.835Z,3.50
2023-02-25T13:04:48.116Z,3.00
2023-02-25T13:10:08.573Z,4.00
2023-02-25T13:15:30.604Z,3.00
2023-02-25T13:21:07.291Z,3.30
2023-02-25T13:26:11.831Z,3.40
2023-02-25T13:31:52.531Z,3.10
2023-02-25T13:37:19.236Z,3.00
2023-02-25T13:42:29.957Z,4.30
2023-02-25T13:48:11.400Z,4.30
2023-02-25T13:53:35.816Z,5.60
2023-02-25T13:58:37.384Z,5.80
2023-02-25T14:03:57.727Z,5.60
2023-02-25T14:09:14.046Z,3.40
2023-02-25T14:14:43.293Z,3.50
2023-02-25T14:19:47.790Z,1.90
2023-02-25T14:25:20.436Z,2.40
2023-02-25T14:30:27.798Z,5.40
2023-02-25T14:35:29.424Z,3.90
2023-02-25T14:40:52.169Z,3.10
2023-02-25T14:46:02.799Z,3.40
2023-02-25T14:51:10.522Z,4.30
2023-02-25T14:56:30.950Z,5.00
2023-02-25T15:02:02.147Z,5.60
2023-02-25T15:07:34.613Z,5.60
2023-02-25T15:12:57.158Z,3.60
2023-02-25T15:18:20.523Z,4.50
2023-02-25T15:23:40.825Z,5.60
2023-02-25T15:28:45.298Z,6.00
2023-02-25T15:33:48.285Z,10.20
2023-02-25T15:38:56.756Z,7.70
2023-02-25T15:44:21.627Z,7.00
2023-02-25T15:49:37.747Z,4.80
2023-02-25T15:54:39.683Z,5.60
2023-02-25T15:59:43.987Z,5.30
2023-02-25T16:04:50.151Z,6.60
2023-02-25T16:09:59.497Z,6.20
2023-02-25T16:15:02.881Z,11.20
2023-02-25T16:20:18.369Z,9.40
2023-02-25T16:25:32.754Z,13.30
2023-02-25T16:30:49.872Z,8.10
2023-02-25T16:36:25.809Z,10.00
2023-02-25T16:41:37.657Z,16.40
2023-02-25T16:46:41.682Z,10.50
2023-02-25T16:51:45.698Z,8.10
2023-02-25T16:56:58.047Z,13.40
2023-02-25T17:02:02.494Z,20.70
2023-02-25T17:07:14.333Z,19.00
2023-02-25T17:12:20.611Z,29.30
2023-02-25T17:17:34.642Z,47.50
2023-02-25T17:22:39.164Z,19.20
2023-02-25T17:27:41.040Z,22.60
2023-02-25T17:32:45.180Z,19.20
2023-02-25T17:42:49.020Z,9.50
2023-02-25T17:47:50.609Z,10.50
2023-02-25T17:52:53.009Z,18.50
2023-02-25T17:57:58.872Z,14.90
2023-02-25T18:03:22.288Z,12.70
2023-02-25T18:08:31.106Z,9.20
2023-02-25T18:13:37.953Z,13.20
2023-02-25T18:18:41.418Z,10.50
2023-02-25T18:23:44.034Z,17.40
2023-02-25T18:28:46.100Z,14.10
2023-02-25T18:33:48.520Z,12.90
2023-02-25T18:38:50.779Z,13.90
2023-02-25T18:43:54.800Z,10.30
2023-02-25T18:48:58.132Z,9.90
2023-02-25T18:53:59.700Z,6.90
2023-02-25T18:59:01.255Z,8.00
2023-02-25T19:04:02.771Z,12.50
2023-02-25T19:09:04.334Z,12.50
2023-02-25T19:14:07.948Z,7.50
2023-02-25T19:19:09.444Z,6.10
2023-02-25T19:24:12.161Z,7.60
2023-02-25T19:29:13.949Z,10.70
2023-02-25T19:34:16.109Z,14.70
2023-02-25T19:39:18.262Z,17.20
2023-02-25T19:44:20.425Z,17.50
2023-02-25T19:49:21.964Z,21.00
2023-02-25T19:54:25.966Z,21.70
2023-02-25T20:04:33.333Z,8.70
2023-02-25T20:09:38.320Z,9.00
2023-02-25T20:14:40.097Z,6.10
2023-02-25T20:19:41.724Z,5.30
2023-02-25T20:24:43.578Z,6.20
2023-02-25T20:29:45.153Z,5.60
2023-02-25T20:34:47.884Z,5.10
2023-02-25T20:39:55.011Z,5.50
2023-02-25T20:44:58.684Z,4.50
2023-02-25T20:50:00.435Z,4.40
2023-02-25T20:55:01.962Z,4.00
2023-02-25T21:00:09.176Z,5.30
2023-02-25T21:05:10.834Z,4.70
2023-02-25T21:10:12.525Z,5.50
2023-02-25T21:15:14.125Z,4.90
2023-02-25T21:20:15.903Z,5.30
2023-02-25T21:25:17.445Z,8.30
2023-02-25T21:30:19.101Z,4.60
2023-02-25T21:35:25.077Z,5.60
2023-02-25T21:40:27.184Z,6.70
2023-02-25T21:45:29.073Z,7.50
2023-02-25T21:50:31.306Z,3.80
2023-02-25T21:55:32.867Z,3.30
2023-02-25T22:00:34.650Z,5.20
2023-02-25T22:05:37.874Z,7.00
2023-02-25T22:10:40.863Z,5.80
2023-02-25T22:15:47.592Z,6.60
2023-02-25T22:20:49.504Z,4.90
2023-02-25T22:25:51.086Z,4.50
2023-02-25T22:30:52.708Z,3.30
2023-02-25T22:35:59.934Z,5.30
2023-02-25T22:41:01.479Z,5.80
2023-02-25T22:46:15.115Z,4.00
2023-02-25T22:51:24.375Z,5.80
2023-02-25T22:56:26.500Z,6.90
2023-02-25T23:01:28.561Z,2.80
2023-02-25T23:06:43.058Z,3.00
2023-02-25T23:11:45.401Z,4.20
2023-02-25T23:16:47.144Z,3.80
2023-02-25T23:21:49.361Z,2.90
2023-02-25T23:26:53.609Z,4.80
2023-02-25T23:31:55.186Z,3.70
2023-02-25T23:36:57.839Z,4.10
2023-02-25T23:41:59.549Z,6.00
2023-02-25T23:47:01.202Z,5.60
2023-02-25T23:52:02.923Z,3.40
2023-02-25T23:57:04.534Z,4.10
